CCA6589 ZBAD-ZSAM
Flight info
| Callsign | CCA6589 |
|---|---|
| Flight time | N/A |
| Altitude | 41000 |
| Route | OMDE7F OMDEK DCT DOXAB W40 YQG W142 DALIM A593 DPX A470 SAPIN V143 EMRID A470 ENVEN ENVE2A |
| Aircraft | A359/H-SDE1E2E3FGHIJ2J3J4J5M1RWXYZ/LB1D1 |
Departure
| Time | N/A |
|---|---|
| Airport | Beijing Daxing International Airport (ZBAD) |
Arrival
| Time | 2026-04-29 16:40 |
|---|---|
| Airport | Xiamen Gaoqi International Airport (ZSAM) |
| Time | Latitude | Longitude | Altitude | Speed | Heading |
|---|---|---|---|---|---|
| 2026-04-29 14:19 | 39.07618 | 116.46370 | 14226 ft | 388 kts | 213° |
| 2026-04-29 14:19 | 39.05377 | 116.44391 | 14913 ft | 394 kts | 215° |
| 2026-04-29 14:20 | 39.03124 | 116.42345 | 15604 ft | 399 kts | 215° |
| 2026-04-29 14:20 | 39.00840 | 116.40283 | 16313 ft | 403 kts | 214° |
| 2026-04-29 14:20 | 38.98680 | 116.38347 | 16975 ft | 408 kts | 214° |
| 2026-04-29 14:20 | 38.96335 | 116.36256 | 17695 ft | 412 kts | 214° |
| 2026-04-29 14:21 | 38.93995 | 116.34176 | 18418 ft | 417 kts | 214° |
| 2026-04-29 14:21 | 38.91594 | 116.32047 | 19052 ft | 422 kts | 214° |
| 2026-04-29 14:21 | 38.89161 | 116.29892 | 19719 ft | 427 kts | 213° |
| 2026-04-29 14:21 | 38.86700 | 116.27716 | 20381 ft | 432 kts | 213° |
| 2026-04-29 14:22 | 38.84213 | 116.25519 | 21028 ft | 436 kts | 213° |
| 2026-04-29 14:22 | 38.81698 | 116.23308 | 21683 ft | 441 kts | 213° |
| 2026-04-29 14:22 | 38.79156 | 116.21073 | 22326 ft | 446 kts | 213° |
| 2026-04-29 14:22 | 38.76586 | 116.18813 | 22977 ft | 450 kts | 213° |
| 2026-04-29 14:23 | 38.73995 | 116.16618 | 23600 ft | 454 kts | 209° |
| 2026-04-29 14:23 | 38.71162 | 116.14816 | 24159 ft | 455 kts | 198° |
| 2026-04-29 14:23 | 38.68125 | 116.13701 | 24737 ft | 453 kts | 187° |
| 2026-04-29 14:23 | 38.64999 | 116.13327 | 25315 ft | 451 kts | 176° |
| 2026-04-29 14:24 | 38.61892 | 116.13692 | 25887 ft | 448 kts | 165° |
| 2026-04-29 14:24 | 38.58904 | 116.14769 | 26451 ft | 445 kts | 154° |
| 2026-04-29 14:24 | 38.56137 | 116.16505 | 27022 ft | 441 kts | 144° |
| 2026-04-29 14:24 | 38.53709 | 116.18787 | 27590 ft | 439 kts | 134° |
| 2026-04-29 14:25 | 38.51616 | 116.21598 | 28144 ft | 436 kts | 124° |
| 2026-04-29 14:25 | 38.49951 | 116.24818 | 28687 ft | 434 kts | 115° |
| 2026-04-29 14:25 | 38.48750 | 116.28353 | 29137 ft | 436 kts | 106° |
| 2026-04-29 14:25 | 38.47832 | 116.32072 | 29499 ft | 442 kts | 106° |
| 2026-04-29 14:26 | 38.46676 | 116.35726 | 29980 ft | 448 kts | 114° |
| 2026-04-29 14:26 | 38.45031 | 116.39147 | 30221 ft | 459 kts | 123° |
| 2026-04-29 14:26 | 38.43086 | 116.42350 | 30500 ft | 465 kts | 127° |
| 2026-04-29 14:26 | 38.40978 | 116.45508 | 30846 ft | 469 kts | 129° |
| 2026-04-29 14:27 | 38.38801 | 116.48631 | 31171 ft | 474 kts | 130° |
| 2026-04-29 14:27 | 38.36586 | 116.51772 | 31469 ft | 478 kts | 130° |
| 2026-04-29 14:27 | 38.34361 | 116.54935 | 31776 ft | 481 kts | 130° |
| 2026-04-29 14:28 | 38.29415 | 116.60763 | 32312 ft | 490 kts | 144° |
| 2026-04-29 14:28 | 38.26489 | 116.63005 | 32589 ft | 493 kts | 154° |
| 2026-04-29 14:28 | 38.23350 | 116.64644 | 32874 ft | 495 kts | 162° |
| 2026-04-29 14:28 | 38.20081 | 116.65994 | 33331 ft | 494 kts | 164° |
| 2026-04-29 14:29 | 38.16785 | 116.67234 | 33793 ft | 493 kts | 165° |
| 2026-04-29 14:29 | 38.13496 | 116.68421 | 34243 ft | 491 kts | 166° |
| 2026-04-29 14:29 | 38.10207 | 116.69597 | 34573 ft | 491 kts | 166° |
| 2026-04-29 14:29 | 38.06924 | 116.70795 | 34878 ft | 492 kts | 166° |
| 2026-04-29 14:30 | 38.03638 | 116.72024 | 35175 ft | 492 kts | 166° |
| 2026-04-29 14:30 | 38.00360 | 116.73266 | 35487 ft | 492 kts | 166° |
| 2026-04-29 14:30 | 37.97119 | 116.74503 | 35797 ft | 492 kts | 166° |
| 2026-04-29 14:30 | 37.93846 | 116.75754 | 36096 ft | 492 kts | 166° |
| 2026-04-29 14:31 | 37.90562 | 116.77006 | 36378 ft | 492 kts | 166° |
| 2026-04-29 14:31 | 37.87284 | 116.78254 | 36654 ft | 492 kts | 166° |
| 2026-04-29 14:31 | 37.83996 | 116.79503 | 36935 ft | 493 kts | 166° |
| 2026-04-29 14:31 | 37.80715 | 116.80746 | 37217 ft | 492 kts | 166° |
| 2026-04-29 14:32 | 37.77435 | 116.81988 | 37487 ft | 492 kts | 166° |
| 2026-04-29 14:32 | 37.74196 | 116.83213 | 37756 ft | 492 kts | 166° |
| 2026-04-29 14:32 | 37.70917 | 116.84452 | 38028 ft | 492 kts | 167° |
| 2026-04-29 14:32 | 37.67636 | 116.85690 | 38317 ft | 491 kts | 167° |
| 2026-04-29 14:33 | 37.64360 | 116.86926 | 38564 ft | 491 kts | 167° |
| 2026-04-29 14:33 | 37.61087 | 116.88158 | 38849 ft | 490 kts | 167° |
| 2026-04-29 14:33 | 37.57830 | 116.89384 | 39074 ft | 489 kts | 167° |
| 2026-04-29 14:33 | 37.54570 | 116.90610 | 39234 ft | 489 kts | 167° |
| 2026-04-29 14:34 | 37.51304 | 116.91837 | 39396 ft | 490 kts | 167° |
| 2026-04-29 14:34 | 37.48033 | 116.93064 | 39549 ft | 490 kts | 167° |
| 2026-04-29 14:34 | 37.44809 | 116.94274 | 39734 ft | 489 kts | 168° |
| 2026-04-29 14:34 | 37.41546 | 116.95497 | 39920 ft | 489 kts | 168° |
| 2026-04-29 14:35 | 37.38284 | 116.96718 | 40069 ft | 489 kts | 168° |
| 2026-04-29 14:35 | 37.35022 | 116.97938 | 40212 ft | 490 kts | 168° |
| 2026-04-29 14:35 | 37.31749 | 116.99161 | 40357 ft | 490 kts | 168° |
| 2026-04-29 14:35 | 37.28486 | 117.00385 | 40497 ft | 490 kts | 167° |
| 2026-04-29 14:36 | 37.25284 | 117.01740 | 40641 ft | 492 kts | 164° |
| 2026-04-29 14:36 | 37.22080 | 117.03251 | 40765 ft | 493 kts | 163° |
| 2026-04-29 14:36 | 37.18877 | 117.04823 | 40900 ft | 494 kts | 163° |
| 2026-04-29 14:36 | 37.15680 | 117.06392 | 41033 ft | 494 kts | 163° |
| 2026-04-29 14:37 | 37.12468 | 117.07948 | 41115 ft | 494 kts | 163° |
| 2026-04-29 14:37 | 37.06038 | 117.10996 | 41125 ft | 494 kts | 164° |
| 2026-04-29 14:38 | 36.99648 | 117.13975 | 41135 ft | 494 kts | 164° |
| 2026-04-29 14:38 | 36.93213 | 117.16961 | 41130 ft | 493 kts | 165° |
| 2026-04-29 14:39 | 36.86778 | 117.19918 | 41130 ft | 491 kts | 167° |
| 2026-04-29 14:39 | 36.80179 | 117.21477 | 41142 ft | 478 kts | 182° |
| 2026-04-29 14:40 | 36.73591 | 117.21639 | 41135 ft | 475 kts | 186° |
| 2026-04-29 14:40 | 36.66987 | 117.21555 | 41143 ft | 474 kts | 186° |
| 2026-04-29 14:41 | 36.60389 | 117.21456 | 41138 ft | 474 kts | 186° |
| 2026-04-29 14:41 | 36.53838 | 117.21390 | 41130 ft | 474 kts | 186° |
| 2026-04-29 14:42 | 36.47249 | 117.21343 | 41145 ft | 473 kts | 186° |
| 2026-04-29 14:42 | 36.40637 | 117.21939 | 41148 ft | 483 kts | 174° |
| 2026-04-29 14:43 | 36.34136 | 117.24053 | 41151 ft | 488 kts | 169° |
| 2026-04-29 14:43 | 36.27634 | 117.26491 | 41140 ft | 489 kts | 169° |
| 2026-04-29 14:44 | 36.24694 | 117.27610 | 41142 ft | 488 kts | 169° |
| 2026-04-29 14:44 | 36.19945 | 117.29406 | 41143 ft | 488 kts | 169° |
| 2026-04-29 14:45 | 36.13441 | 117.31833 | 41143 ft | 488 kts | 169° |
| 2026-04-29 14:45 | 36.06933 | 117.34240 | 41146 ft | 488 kts | 170° |
| 2026-04-29 14:46 | 36.00419 | 117.36643 | 41147 ft | 488 kts | 170° |
| 2026-04-29 14:46 | 35.93960 | 117.39052 | 41146 ft | 489 kts | 170° |
| 2026-04-29 14:47 | 35.87450 | 117.41492 | 41147 ft | 489 kts | 170° |
| 2026-04-29 14:47 | 35.82253 | 117.43437 | 41129 ft | 489 kts | 170° |
| 2026-04-29 14:48 | 35.75742 | 117.45869 | 41153 ft | 489 kts | 170° |
| 2026-04-29 14:48 | 35.69270 | 117.48279 | 41148 ft | 489 kts | 170° |
| 2026-04-29 14:49 | 35.62768 | 117.50699 | 41155 ft | 487 kts | 170° |
| 2026-04-29 14:49 | 35.56318 | 117.53093 | 41156 ft | 487 kts | 170° |
| 2026-04-29 14:50 | 35.49826 | 117.55498 | 41161 ft | 487 kts | 170° |
| 2026-04-29 14:50 | 35.43337 | 117.57899 | 41157 ft | 487 kts | 170° |
| 2026-04-29 14:51 | 35.36849 | 117.60295 | 41164 ft | 487 kts | 170° |
| 2026-04-29 14:51 | 35.30402 | 117.62672 | 41158 ft | 487 kts | 171° |
| 2026-04-29 14:52 | 35.23918 | 117.65060 | 41168 ft | 486 kts | 171° |
| 2026-04-29 14:52 | 35.17439 | 117.67440 | 41172 ft | 486 kts | 171° |
| 2026-04-29 14:53 | 35.11004 | 117.69801 | 41174 ft | 486 kts | 171° |
| 2026-04-29 14:53 | 35.04530 | 117.72180 | 41173 ft | 486 kts | 171° |
| 2026-04-29 14:54 | 34.98063 | 117.74552 | 41178 ft | 485 kts | 171° |
| 2026-04-29 14:54 | 34.91638 | 117.76897 | 41178 ft | 485 kts | 171° |
| 2026-04-29 14:55 | 34.85177 | 117.79254 | 41181 ft | 485 kts | 171° |
| 2026-04-29 14:55 | 34.78710 | 117.81631 | 41179 ft | 484 kts | 172° |
| 2026-04-29 14:56 | 34.72300 | 117.83939 | 41185 ft | 483 kts | 172° |
| 2026-04-29 14:56 | 34.65853 | 117.86242 | 41183 ft | 483 kts | 172° |
| 2026-04-29 14:57 | 34.59406 | 117.88549 | 41183 ft | 483 kts | 172° |
| 2026-04-29 14:57 | 34.52962 | 117.90857 | 41184 ft | 483 kts | 172° |
| 2026-04-29 14:58 | 34.46524 | 117.93162 | 41183 ft | 482 kts | 172° |
| 2026-04-29 14:58 | 34.40129 | 117.95448 | 41185 ft | 482 kts | 172° |
| 2026-04-29 14:59 | 34.33691 | 117.97745 | 41185 ft | 482 kts | 172° |
| 2026-04-29 14:59 | 34.27253 | 118.00039 | 41182 ft | 482 kts | 173° |
| 2026-04-29 15:00 | 34.20830 | 118.02370 | 41181 ft | 482 kts | 172° |
| 2026-04-29 15:00 | 34.14408 | 118.04716 | 41185 ft | 482 kts | 172° |
| 2026-04-29 15:01 | 34.07991 | 118.07054 | 41176 ft | 482 kts | 173° |
| 2026-04-29 15:01 | 34.01620 | 118.09368 | 41192 ft | 481 kts | 173° |
| 2026-04-29 15:02 | 33.95213 | 118.11704 | 41189 ft | 480 kts | 173° |
| 2026-04-29 15:02 | 33.88815 | 118.14029 | 41187 ft | 480 kts | 173° |
| 2026-04-29 15:03 | 33.82459 | 118.16337 | 41189 ft | 480 kts | 173° |
| 2026-04-29 15:03 | 33.76070 | 118.18668 | 41189 ft | 479 kts | 173° |
| 2026-04-29 15:04 | 33.69685 | 118.20992 | 41189 ft | 479 kts | 173° |
| 2026-04-29 15:04 | 33.63302 | 118.23310 | 41190 ft | 479 kts | 173° |
| 2026-04-29 15:05 | 33.56967 | 118.25608 | 41192 ft | 479 kts | 173° |
| 2026-04-29 15:05 | 33.50590 | 118.27921 | 41191 ft | 477 kts | 173° |
| 2026-04-29 15:06 | 33.44237 | 118.30221 | 41191 ft | 476 kts | 174° |
| 2026-04-29 15:06 | 33.37938 | 118.32496 | 41199 ft | 476 kts | 174° |
| 2026-04-29 15:07 | 33.31591 | 118.34785 | 41197 ft | 476 kts | 174° |
| 2026-04-29 15:07 | 33.25248 | 118.37071 | 41170 ft | 475 kts | 174° |
| 2026-04-29 15:08 | 33.18910 | 118.39361 | 41198 ft | 475 kts | 174° |
| 2026-04-29 15:08 | 33.12621 | 118.41626 | 41194 ft | 475 kts | 174° |
| 2026-04-29 15:09 | 33.06288 | 118.43898 | 41201 ft | 475 kts | 174° |
| 2026-04-29 15:09 | 32.99963 | 118.46167 | 41195 ft | 475 kts | 174° |
| 2026-04-29 15:10 | 32.93634 | 118.48435 | 41205 ft | 475 kts | 174° |
| 2026-04-29 15:10 | 32.87346 | 118.50687 | 41200 ft | 475 kts | 174° |
| 2026-04-29 15:11 | 32.81018 | 118.52949 | 41199 ft | 475 kts | 174° |
| 2026-04-29 15:11 | 32.74695 | 118.55209 | 41205 ft | 473 kts | 174° |
| 2026-04-29 15:12 | 32.68393 | 118.57457 | 41210 ft | 472 kts | 174° |
| 2026-04-29 15:12 | 32.62163 | 118.59928 | 41211 ft | 479 kts | 170° |
| 2026-04-29 15:13 | 32.55946 | 118.62867 | 41215 ft | 481 kts | 169° |
| 2026-04-29 15:13 | 32.49732 | 118.65817 | 41213 ft | 480 kts | 170° |
| 2026-04-29 15:14 | 32.43530 | 118.68680 | 41210 ft | 477 kts | 170° |
| 2026-04-29 15:14 | 32.37379 | 118.71474 | 41213 ft | 476 kts | 171° |
| 2026-04-29 15:15 | 32.34941 | 118.72576 | 41216 ft | 476 kts | 171° |
| 2026-04-29 15:15 | 32.29006 | 118.75257 | 41216 ft | 476 kts | 171° |
| 2026-04-29 15:16 | 32.22817 | 118.78054 | 41206 ft | 476 kts | 171° |
| 2026-04-29 15:16 | 32.16673 | 118.80829 | 41219 ft | 475 kts | 171° |
| 2026-04-29 15:17 | 32.10492 | 118.83616 | 41223 ft | 475 kts | 171° |
| 2026-04-29 15:17 | 32.04314 | 118.86398 | 41222 ft | 475 kts | 171° |
| 2026-04-29 15:18 | 31.98135 | 118.89176 | 41182 ft | 475 kts | 170° |
| 2026-04-29 15:18 | 31.92004 | 118.91928 | 41233 ft | 475 kts | 170° |
| 2026-04-29 15:19 | 31.85828 | 118.94698 | 41232 ft | 474 kts | 170° |
| 2026-04-29 15:19 | 31.79656 | 118.97468 | 41234 ft | 474 kts | 170° |
| 2026-04-29 15:20 | 31.73547 | 119.00213 | 41237 ft | 473 kts | 170° |
| 2026-04-29 15:20 | 31.67392 | 119.02970 | 41232 ft | 473 kts | 170° |
| 2026-04-29 15:21 | 31.61185 | 119.05222 | 41223 ft | 464 kts | 175° |
| 2026-04-29 15:21 | 31.54948 | 119.07191 | 41224 ft | 463 kts | 176° |
| 2026-04-29 15:22 | 31.48748 | 119.09020 | 41216 ft | 462 kts | 177° |
| 2026-04-29 15:22 | 31.42506 | 119.10815 | 41207 ft | 462 kts | 177° |
| 2026-04-29 15:23 | 31.36262 | 119.12628 | 41222 ft | 462 kts | 177° |
| 2026-04-29 15:23 | 31.30019 | 119.14457 | 41218 ft | 462 kts | 177° |
| 2026-04-29 15:24 | 31.23822 | 119.16274 | 41221 ft | 462 kts | 177° |
| 2026-04-29 15:24 | 31.17581 | 119.18102 | 41198 ft | 462 kts | 177° |
| 2026-04-29 15:25 | 31.11344 | 119.19925 | 41219 ft | 462 kts | 177° |
| 2026-04-29 15:25 | 31.05103 | 119.21745 | 41223 ft | 462 kts | 177° |
| 2026-04-29 15:26 | 30.98898 | 119.23554 | 41219 ft | 462 kts | 177° |
| 2026-04-29 15:26 | 30.92663 | 119.25369 | 41191 ft | 462 kts | 177° |
| 2026-04-29 15:27 | 30.86435 | 119.27181 | 41222 ft | 460 kts | 177° |
| 2026-04-29 15:27 | 30.80226 | 119.28982 | 41216 ft | 459 kts | 177° |
| 2026-04-29 15:28 | 30.74064 | 119.30765 | 41215 ft | 459 kts | 177° |
| 2026-04-29 15:28 | 30.67857 | 119.32561 | 41215 ft | 459 kts | 177° |
| 2026-04-29 15:29 | 30.61656 | 119.34354 | 41219 ft | 459 kts | 177° |
| 2026-04-29 15:30 | 30.49291 | 119.37921 | 41221 ft | 459 kts | 177° |
| 2026-04-29 15:30 | 30.43086 | 119.39711 | 41221 ft | 459 kts | 177° |
| 2026-04-29 15:31 | 30.36888 | 119.41490 | 41219 ft | 459 kts | 177° |
| 2026-04-29 15:31 | 30.30681 | 119.43268 | 41216 ft | 459 kts | 177° |
| 2026-04-29 15:32 | 30.24517 | 119.45040 | 41218 ft | 459 kts | 177° |
| 2026-04-29 15:32 | 30.18309 | 119.46823 | 41218 ft | 459 kts | 177° |
| 2026-04-29 15:33 | 30.12099 | 119.48600 | 41180 ft | 459 kts | 177° |
| 2026-04-29 15:33 | 30.05938 | 119.50356 | 41225 ft | 459 kts | 177° |
| 2026-04-29 15:34 | 29.99739 | 119.52126 | 41217 ft | 459 kts | 177° |
| 2026-04-29 15:34 | 29.93535 | 119.53895 | 41203 ft | 459 kts | 177° |
| 2026-04-29 15:35 | 29.87326 | 119.55661 | 41217 ft | 459 kts | 177° |
| 2026-04-29 15:35 | 29.81164 | 119.57414 | 41212 ft | 459 kts | 176° |
| 2026-04-29 15:36 | 29.74956 | 119.59175 | 41225 ft | 460 kts | 176° |
| 2026-04-29 15:36 | 29.68738 | 119.60939 | 41211 ft | 460 kts | 176° |
| 2026-04-29 15:37 | 29.62527 | 119.62699 | 41219 ft | 460 kts | 176° |
| 2026-04-29 15:37 | 29.56350 | 119.64312 | 41202 ft | 453 kts | 182° |
| 2026-04-29 15:38 | 29.50178 | 119.64590 | 41208 ft | 440 kts | 191° |
| 2026-04-29 15:38 | 29.44076 | 119.64274 | 41201 ft | 438 kts | 192° |
| 2026-04-29 15:39 | 29.37975 | 119.63859 | 41203 ft | 439 kts | 192° |
| 2026-04-29 15:39 | 29.31912 | 119.63464 | 41186 ft | 438 kts | 192° |
| 2026-04-29 15:40 | 29.25805 | 119.63079 | 41200 ft | 440 kts | 192° |
| 2026-04-29 15:40 | 29.19693 | 119.62697 | 41207 ft | 441 kts | 192° |
| 2026-04-29 15:41 | 29.13609 | 119.62329 | 41200 ft | 440 kts | 192° |
| 2026-04-29 15:41 | 29.07494 | 119.61963 | 41177 ft | 440 kts | 192° |
| 2026-04-29 15:42 | 29.01365 | 119.61589 | 41202 ft | 441 kts | 192° |
| 2026-04-29 15:42 | 28.95233 | 119.61201 | 41195 ft | 442 kts | 192° |
| 2026-04-29 15:43 | 28.89131 | 119.60824 | 41196 ft | 441 kts | 192° |
| 2026-04-29 15:43 | 28.82998 | 119.60440 | 41181 ft | 441 kts | 192° |
| 2026-04-29 15:44 | 28.76856 | 119.60056 | 41192 ft | 442 kts | 192° |
| 2026-04-29 15:44 | 28.70705 | 119.59675 | 41199 ft | 443 kts | 192° |
| 2026-04-29 15:45 | 28.64593 | 119.59300 | 41187 ft | 442 kts | 192° |
| 2026-04-29 15:45 | 28.58449 | 119.58921 | 41140 ft | 442 kts | 192° |
| 2026-04-29 15:46 | 28.52316 | 119.58537 | 41184 ft | 444 kts | 191° |
| 2026-04-29 15:46 | 28.46138 | 119.58157 | 41182 ft | 444 kts | 191° |
| 2026-04-29 15:47 | 28.39961 | 119.57805 | 41180 ft | 444 kts | 191° |
| 2026-04-29 15:47 | 28.33824 | 119.57473 | 41180 ft | 444 kts | 191° |
| 2026-04-29 15:48 | 28.27638 | 119.57136 | 41169 ft | 445 kts | 191° |
| 2026-04-29 15:48 | 28.21443 | 119.56794 | 41170 ft | 446 kts | 191° |
| 2026-04-29 15:49 | 28.15248 | 119.56451 | 41165 ft | 445 kts | 191° |
| 2026-04-29 15:49 | 28.09090 | 119.56114 | 41167 ft | 446 kts | 191° |
| 2026-04-29 15:50 | 28.02865 | 119.55966 | 41162 ft | 449 kts | 189° |
| 2026-04-29 15:50 | 27.96619 | 119.55919 | 41156 ft | 449 kts | 189° |
| 2026-04-29 15:51 | 27.90406 | 119.55859 | 41160 ft | 449 kts | 189° |
| 2026-04-29 15:51 | 27.84150 | 119.55827 | 41145 ft | 449 kts | 188° |
| 2026-04-29 15:52 | 27.77881 | 119.55799 | 41147 ft | 450 kts | 188° |
| 2026-04-29 15:52 | 27.71664 | 119.55770 | 41138 ft | 449 kts | 188° |
| 2026-04-29 15:53 | 27.65405 | 119.55733 | 41143 ft | 449 kts | 188° |
| 2026-04-29 15:53 | 27.59153 | 119.55698 | 41142 ft | 450 kts | 188° |
| 2026-04-29 15:54 | 27.52931 | 119.55664 | 41129 ft | 451 kts | 188° |
| 2026-04-29 15:54 | 27.46653 | 119.55628 | 41130 ft | 451 kts | 188° |
| 2026-04-29 15:55 | 27.40365 | 119.55594 | 41122 ft | 451 kts | 188° |
| 2026-04-29 15:55 | 27.34113 | 119.55589 | 41115 ft | 452 kts | 188° |
| 2026-04-29 15:56 | 27.27828 | 119.55588 | 41107 ft | 452 kts | 188° |
| 2026-04-29 15:56 | 27.21530 | 119.55569 | 41107 ft | 453 kts | 188° |
| 2026-04-29 15:57 | 27.16295 | 119.55532 | 41105 ft | 452 kts | 188° |
| 2026-04-29 15:57 | 27.08969 | 119.55477 | 41101 ft | 452 kts | 188° |
| 2026-04-29 15:58 | 27.02672 | 119.55434 | 41076 ft | 453 kts | 188° |
| 2026-04-29 15:58 | 26.97435 | 119.55401 | 41097 ft | 453 kts | 188° |
| 2026-04-29 15:59 | 26.90110 | 119.55357 | 41100 ft | 453 kts | 188° |
| 2026-04-29 15:59 | 26.84828 | 119.55323 | 41098 ft | 453 kts | 188° |
| 2026-04-29 16:00 | 26.78559 | 119.55283 | 41097 ft | 453 kts | 188° |
| 2026-04-29 16:00 | 26.72246 | 119.55241 | 41096 ft | 455 kts | 188° |
| 2026-04-29 16:01 | 26.64884 | 119.55192 | 41098 ft | 455 kts | 188° |
| 2026-04-29 16:01 | 26.59611 | 119.55160 | 41091 ft | 456 kts | 188° |
| 2026-04-29 16:02 | 26.53266 | 119.55120 | 41097 ft | 456 kts | 188° |
| 2026-04-29 16:02 | 26.46922 | 119.55080 | 41097 ft | 457 kts | 188° |
| 2026-04-29 16:03 | 26.40588 | 119.55038 | 41097 ft | 458 kts | 188° |
| 2026-04-29 16:03 | 26.37438 | 119.55025 | 41093 ft | 447 kts | 187° |
| 2026-04-29 16:03 | 26.34358 | 119.55011 | 41098 ft | 439 kts | 188° |
| 2026-04-29 16:04 | 26.28282 | 119.54937 | 41097 ft | 435 kts | 188° |
| 2026-04-29 16:04 | 26.22307 | 119.54587 | 41085 ft | 427 kts | 196° |
| 2026-04-29 16:05 | 26.16596 | 119.53031 | 41104 ft | 421 kts | 203° |
| 2026-04-29 16:05 | 26.10995 | 119.51136 | 41099 ft | 421 kts | 204° |
| 2026-04-29 16:06 | 26.05444 | 119.49204 | 41097 ft | 420 kts | 204° |
| 2026-04-29 16:06 | 25.99856 | 119.47283 | 41100 ft | 420 kts | 204° |
| 2026-04-29 16:07 | 25.94289 | 119.45386 | 41096 ft | 421 kts | 203° |
| 2026-04-29 16:07 | 25.88682 | 119.43482 | 41095 ft | 421 kts | 203° |
| 2026-04-29 16:08 | 25.83065 | 119.41576 | 41096 ft | 422 kts | 203° |
| 2026-04-29 16:08 | 25.77540 | 119.39573 | 41091 ft | 418 kts | 208° |
| 2026-04-29 16:09 | 25.72579 | 119.36423 | 41076 ft | 408 kts | 222° |
| 2026-04-29 16:09 | 25.68520 | 119.32091 | 40977 ft | 405 kts | 230° |
| 2026-04-29 16:09 | 25.66593 | 119.29819 | 40821 ft | 404 kts | 230° |
| 2026-04-29 16:10 | 25.64665 | 119.27545 | 40258 ft | 403 kts | 230° |
| 2026-04-29 16:10 | 25.62752 | 119.25292 | 39857 ft | 399 kts | 230° |
| 2026-04-29 16:10 | 25.60885 | 119.23098 | 39538 ft | 393 kts | 230° |
| 2026-04-29 16:10 | 25.59022 | 119.20913 | 39143 ft | 388 kts | 229° |
| 2026-04-29 16:11 | 25.57171 | 119.18753 | 38730 ft | 384 kts | 230° |
| 2026-04-29 16:11 | 25.55343 | 119.16607 | 38209 ft | 381 kts | 230° |
| 2026-04-29 16:11 | 25.53548 | 119.14500 | 37595 ft | 372 kts | 230° |
| 2026-04-29 16:11 | 25.51782 | 119.12429 | 36748 ft | 367 kts | 230° |
| 2026-04-29 16:12 | 25.50029 | 119.10372 | 36072 ft | 368 kts | 230° |
| 2026-04-29 16:12 | 25.48307 | 119.08357 | 35763 ft | 361 kts | 230° |
| 2026-04-29 16:12 | 25.46596 | 119.06356 | 35474 ft | 355 kts | 230° |
| 2026-04-29 16:12 | 25.44909 | 119.04384 | 35138 ft | 350 kts | 230° |
| 2026-04-29 16:13 | 25.43244 | 119.02439 | 34781 ft | 346 kts | 230° |
| 2026-04-29 16:13 | 25.41600 | 119.00518 | 34437 ft | 340 kts | 230° |
| 2026-04-29 16:13 | 25.39993 | 118.98642 | 33850 ft | 333 kts | 230° |
| 2026-04-29 16:13 | 25.38430 | 118.96819 | 33164 ft | 328 kts | 230° |
| 2026-04-29 16:14 | 25.36880 | 118.95000 | 32540 ft | 322 kts | 230° |
| 2026-04-29 16:14 | 25.35357 | 118.93224 | 32010 ft | 314 kts | 230° |
| 2026-04-29 16:14 | 25.33865 | 118.91492 | 31480 ft | 308 kts | 230° |
| 2026-04-29 16:14 | 25.32423 | 118.89779 | 30944 ft | 301 kts | 231° |
| 2026-04-29 16:15 | 25.31027 | 118.88077 | 30420 ft | 296 kts | 231° |
| 2026-04-29 16:15 | 25.29658 | 118.86406 | 29860 ft | 290 kts | 231° |
| 2026-04-29 16:15 | 25.28309 | 118.84765 | 29211 ft | 286 kts | 231° |
| 2026-04-29 16:15 | 25.26995 | 118.83169 | 28569 ft | 283 kts | 231° |
| 2026-04-29 16:16 | 25.25674 | 118.81570 | 27950 ft | 280 kts | 231° |
| 2026-04-29 16:16 | 25.24369 | 118.79989 | 27344 ft | 277 kts | 231° |
| 2026-04-29 16:16 | 25.23075 | 118.78422 | 26757 ft | 274 kts | 231° |
| 2026-04-29 16:16 | 25.21798 | 118.76878 | 26215 ft | 271 kts | 232° |
| 2026-04-29 16:17 | 25.20534 | 118.75351 | 25673 ft | 268 kts | 232° |
| 2026-04-29 16:17 | 25.19282 | 118.73838 | 25113 ft | 266 kts | 232° |
| 2026-04-29 16:17 | 25.18061 | 118.72355 | 24539 ft | 264 kts | 232° |
| 2026-04-29 16:17 | 25.16823 | 118.70862 | 24007 ft | 262 kts | 232° |
| 2026-04-29 16:18 | 25.15594 | 118.69385 | 23404 ft | 261 kts | 232° |
| 2026-04-29 16:18 | 25.14374 | 118.67915 | 22818 ft | 258 kts | 232° |
| 2026-04-29 16:18 | 25.13172 | 118.66465 | 22230 ft | 254 kts | 231° |
| 2026-04-29 16:18 | 25.11981 | 118.65028 | 21618 ft | 253 kts | 231° |
| 2026-04-29 16:19 | 25.10791 | 118.63596 | 21122 ft | 253 kts | 231° |
| 2026-04-29 16:19 | 25.09619 | 118.62190 | 20980 ft | 244 kts | 231° |
| 2026-04-29 16:19 | 25.08478 | 118.60835 | 20763 ft | 239 kts | 231° |
| 2026-04-29 16:19 | 25.07350 | 118.59542 | 20485 ft | 236 kts | 230° |
| 2026-04-29 16:20 | 25.06212 | 118.58243 | 20161 ft | 235 kts | 230° |
| 2026-04-29 16:20 | 25.05081 | 118.56953 | 19839 ft | 233 kts | 230° |
| 2026-04-29 16:20 | 25.03956 | 118.55665 | 19534 ft | 232 kts | 230° |
| 2026-04-29 16:20 | 25.02841 | 118.54385 | 19218 ft | 231 kts | 230° |
| 2026-04-29 16:21 | 25.01733 | 118.53113 | 18940 ft | 229 kts | 230° |
| 2026-04-29 16:21 | 25.00631 | 118.51848 | 18659 ft | 228 kts | 230° |
| 2026-04-29 16:21 | 24.99530 | 118.50584 | 18319 ft | 229 kts | 230° |
| 2026-04-29 16:21 | 24.98426 | 118.49316 | 17796 ft | 236 kts | 230° |
| 2026-04-29 16:22 | 24.97274 | 118.47993 | 17249 ft | 243 kts | 230° |
| 2026-04-29 16:22 | 24.96087 | 118.46631 | 16719 ft | 249 kts | 229° |
| 2026-04-29 16:22 | 24.94871 | 118.45239 | 16171 ft | 255 kts | 229° |
| 2026-04-29 16:22 | 24.93636 | 118.43824 | 15724 ft | 258 kts | 229° |
| 2026-04-29 16:23 | 24.92384 | 118.42392 | 15237 ft | 262 kts | 229° |
| 2026-04-29 16:23 | 24.91115 | 118.40940 | 14687 ft | 262 kts | 229° |
| 2026-04-29 16:23 | 24.89883 | 118.39534 | 14160 ft | 255 kts | 228° |
| 2026-04-29 16:23 | 24.88665 | 118.38143 | 13614 ft | 249 kts | 228° |
| 2026-04-29 16:24 | 24.87481 | 118.36788 | 13082 ft | 242 kts | 228° |
| 2026-04-29 16:24 | 24.86320 | 118.35462 | 12615 ft | 240 kts | 229° |
| 2026-04-29 16:24 | 24.85164 | 118.34140 | 12170 ft | 238 kts | 228° |
| 2026-04-29 16:24 | 24.84019 | 118.32832 | 11729 ft | 237 kts | 228° |
| 2026-04-29 16:25 | 24.82880 | 118.31530 | 11307 ft | 235 kts | 228° |
| 2026-04-29 16:25 | 24.81759 | 118.30251 | 11038 ft | 237 kts | 228° |
| 2026-04-29 16:26 | 24.78140 | 118.26121 | 10641 ft | 233 kts | 228° |
| 2026-04-29 16:26 | 24.77016 | 118.24839 | 10521 ft | 232 kts | 228° |
| 2026-04-29 16:26 | 24.75896 | 118.23562 | 10400 ft | 232 kts | 228° |
| 2026-04-29 16:26 | 24.74791 | 118.22304 | 10284 ft | 231 kts | 228° |
| 2026-04-29 16:27 | 24.73672 | 118.21030 | 10171 ft | 231 kts | 227° |
| 2026-04-29 16:27 | 24.72557 | 118.19759 | 10051 ft | 231 kts | 227° |
| 2026-04-29 16:27 | 24.71442 | 118.18490 | 9937 ft | 231 kts | 227° |
| 2026-04-29 16:27 | 24.70326 | 118.17219 | 9811 ft | 230 kts | 227° |
| 2026-04-29 16:28 | 24.69214 | 118.15952 | 9681 ft | 230 kts | 227° |
| 2026-04-29 16:28 | 24.65941 | 118.12229 | 9056 ft | 229 kts | 227° |
| 2026-04-29 16:29 | 24.64829 | 118.10964 | 8643 ft | 231 kts | 227° |
| 2026-04-29 16:29 | 24.63707 | 118.09691 | 8235 ft | 233 kts | 227° |
| 2026-04-29 16:29 | 24.62568 | 118.08404 | 7818 ft | 236 kts | 227° |
| 2026-04-29 16:29 | 24.61424 | 118.07102 | 7418 ft | 237 kts | 227° |
| 2026-04-29 16:30 | 24.60287 | 118.05808 | 7154 ft | 233 kts | 226° |
| 2026-04-29 16:30 | 24.59179 | 118.04548 | 6964 ft | 225 kts | 226° |
| 2026-04-29 16:30 | 24.58129 | 118.03355 | 6840 ft | 216 kts | 226° |
| 2026-04-29 16:30 | 24.57096 | 118.02183 | 6732 ft | 212 kts | 226° |
| 2026-04-29 16:31 | 24.56071 | 118.01021 | 6623 ft | 212 kts | 226° |
| 2026-04-29 16:31 | 24.55066 | 117.99837 | 6443 ft | 212 kts | 227° |
| 2026-04-29 16:31 | 24.54069 | 117.98635 | 6187 ft | 213 kts | 227° |
| 2026-04-29 16:31 | 24.53067 | 117.97430 | 5942 ft | 214 kts | 227° |
| 2026-04-29 16:32 | 24.52061 | 117.96224 | 5694 ft | 215 kts | 227° |
| 2026-04-29 16:32 | 24.51045 | 117.95010 | 5447 ft | 216 kts | 227° |
| 2026-04-29 16:32 | 24.50021 | 117.93788 | 5207 ft | 218 kts | 227° |
| 2026-04-29 16:32 | 24.49007 | 117.92581 | 4962 ft | 218 kts | 227° |
| 2026-04-29 16:33 | 24.46824 | 117.90257 | 4471 ft | 221 kts | 212° |
| 2026-04-29 16:33 | 24.45382 | 117.89719 | 4200 ft | 222 kts | 186° |
| 2026-04-29 16:33 | 24.43873 | 117.89971 | 3886 ft | 221 kts | 158° |
| 2026-04-29 16:34 | 24.42630 | 117.90952 | 3580 ft | 222 kts | 133° |
| 2026-04-29 16:34 | 24.41752 | 117.92340 | 3482 ft | 224 kts | 110° |
| 2026-04-29 16:34 | 24.41711 | 117.94010 | 3490 ft | 219 kts | 76° |
| 2026-04-29 16:34 | 24.42178 | 117.95567 | 3476 ft | 214 kts | 63° |
| 2026-04-29 16:35 | 24.42974 | 117.96817 | 3382 ft | 189 kts | 46° |
| 2026-04-29 16:35 | 24.43793 | 117.97876 | 3159 ft | 177 kts | 51° |
| 2026-04-29 16:35 | 24.44515 | 117.98915 | 2890 ft | 165 kts | 51° |
| 2026-04-29 16:35 | 24.45197 | 117.99879 | 2665 ft | 155 kts | 50° |
| 2026-04-29 16:36 | 24.45842 | 118.00779 | 2460 ft | 145 kts | 50° |
| 2026-04-29 16:36 | 24.46448 | 118.01626 | 2282 ft | 137 kts | 51° |
| 2026-04-29 16:36 | 24.47023 | 118.02432 | 2101 ft | 133 kts | 50° |
| 2026-04-29 16:36 | 24.47586 | 118.03218 | 1936 ft | 133 kts | 51° |
| 2026-04-29 16:37 | 24.48155 | 118.04014 | 1757 ft | 133 kts | 52° |
| 2026-04-29 16:37 | 24.48726 | 118.04812 | 1588 ft | 133 kts | 52° |
| 2026-04-29 16:37 | 24.49296 | 118.05609 | 1403 ft | 133 kts | 52° |
| 2026-04-29 16:37 | 24.49673 | 118.06137 | 1286 ft | 133 kts | 52° |
| 2026-04-29 16:38 | 24.50423 | 118.07186 | 1050 ft | 126 kts | 52° |
| 2026-04-29 16:38 | 24.50770 | 118.07670 | 934 ft | 119 kts | 54° |
| 2026-04-29 16:38 | 24.51442 | 118.08610 | 747 ft | 119 kts | 54° |
| 2026-04-29 16:38 | 24.51954 | 118.09331 | 592 ft | 122 kts | 51° |
| 2026-04-29 16:39 | 24.52485 | 118.10052 | 410 ft | 120 kts | 52° |
| 2026-04-29 16:39 | 24.53001 | 118.10773 | 283 ft | 119 kts | 54° |
| 2026-04-29 16:39 | 24.53499 | 118.11485 | 145 ft | 118 kts | 54° |
| 2026-04-29 16:39 | 24.54001 | 118.12197 | 57 ft | 106 kts | 52° |
| 2026-04-29 16:40 | 24.54278 | 118.12586 | 53 ft | 29 kts | 52° |
| 2026-04-29 16:40 | 24.54404 | 118.12757 | 52 ft | 29 kts | 51° |
| 2026-04-29 16:40 | 24.54502 | 118.12946 | 51 ft | 28 kts | 71° |
| 2026-04-29 16:40 | 24.54508 | 118.13135 | 52 ft | 20 kts | 136° |
| 2026-04-29 16:41 | 24.54439 | 118.13197 | 54 ft | 5 kts | 94° |
| 2026-04-29 16:41 | 24.54450 | 118.13232 | 52 ft | 6 kts | 72° |
| 2026-04-29 16:41 | 24.54469 | 118.13271 | 52 ft | 5 kts | 46° |
| 2026-04-29 16:41 | 24.54500 | 118.13308 | 52 ft | 8 kts | 46° |
| 2026-04-29 16:42 | 24.54544 | 118.13363 | 49 ft | 11 kts | 49° |
| 2026-04-29 16:42 | 24.54594 | 118.13434 | 48 ft | 12 kts | 56° |
| 2026-04-29 16:42 | 24.54644 | 118.13515 | 50 ft | 13 kts | 54° |
| 2026-04-29 16:42 | 24.54704 | 118.13590 | 50 ft | 14 kts | 49° |
| 2026-04-29 16:43 | 24.54766 | 118.13679 | 49 ft | 15 kts | 53° |
| 2026-04-29 16:43 | 24.54799 | 118.13776 | 50 ft | 13 kts | 112° |
| 2026-04-29 16:43 | 24.54798 | 118.13840 | 49 ft | 8 kts | 81° |
| 2026-04-29 16:43 | 24.54807 | 118.13891 | 48 ft | 0 kts | 79° |